createdAt,value
2017-04-08T00:00:13.584Z,11.86
2017-04-08T00:01:14.830Z,11.83
2017-04-08T00:02:16.059Z,11.75
2017-04-08T00:03:17.290Z,11.71
2017-04-08T00:04:18.963Z,11.8
2017-04-08T00:05:20.136Z,11.8
2017-04-08T00:06:21.385Z,11.8
2017-04-08T00:07:22.618Z,11.71
2017-04-08T00:08:23.862Z,11.77
2017-04-08T00:09:25.200Z,11.7
2017-04-08T00:10:26.523Z,11.74
2017-04-08T00:11:27.646Z,11.82
2017-04-08T00:12:28.897Z,11.77
2017-04-08T00:13:30.155Z,11.85
2017-04-08T00:14:31.455Z,11.8
2017-04-08T00:15:32.898Z,11.72
2017-04-08T00:16:34.121Z,11.75
2017-04-08T00:17:35.382Z,11.72
2017-04-08T00:18:36.605Z,11.74
2017-04-08T00:19:37.842Z,11.71
2017-04-08T00:20:39.112Z,11.77
2017-04-08T00:21:40.365Z,11.74
2017-04-08T00:22:41.629Z,11.7
2017-04-08T00:23:42.917Z,11.74
2017-04-08T00:24:44.174Z,11.71
2017-04-08T00:25:45.415Z,11.59
2017-04-08T00:26:46.680Z,11.72
2017-04-08T00:27:47.913Z,11.71
2017-04-08T00:28:49.308Z,11.62
2017-04-08T00:29:50.543Z,11.64
2017-04-08T00:30:51.782Z,11.57
2017-04-08T00:31:53.080Z,11.62
2017-04-08T00:32:54.326Z,11.56
2017-04-08T00:33:55.567Z,11.59
2017-04-08T00:34:56.824Z,11.49
2017-04-08T00:35:58.221Z,11.54
2017-04-08T00:36:59.486Z,11.54
2017-04-08T00:38:00.745Z,11.53
2017-04-08T00:39:01.996Z,11.5
2017-04-08T00:40:03.248Z,11.52
2017-04-08T00:41:04.499Z,11.53
2017-04-08T00:42:05.727Z,11.43
2017-04-08T00:43:06.981Z,11.46
2017-04-08T00:44:08.221Z,11.41
2017-04-08T00:45:09.526Z,11.46
2017-04-08T00:46:10.806Z,11.52
2017-04-08T00:47:12.040Z,11.43
2017-04-08T00:48:13.410Z,11.35
2017-04-08T00:49:14.636Z,11.39
2017-04-08T00:50:15.888Z,11.36
2017-04-08T00:51:17.144Z,11.36
2017-04-08T00:52:18.494Z,11.38
2017-04-08T00:53:19.796Z,11.35
2017-04-08T00:54:21.033Z,11.44
2017-04-08T00:55:22.276Z,11.35
2017-04-08T00:56:23.531Z,11.43
2017-04-08T00:57:24.769Z,11.36
2017-04-08T00:58:26.016Z,11.43
2017-04-08T00:59:27.350Z,11.28
2017-04-08T01:00:28.598Z,11.39
2017-04-08T01:01:29.837Z,11.35
2017-04-08T01:02:31.106Z,11.31
2017-04-08T01:03:32.351Z,11.36
2017-04-08T01:04:33.690Z,11.34
2017-04-08T01:05:34.941Z,11.35
2017-04-08T01:06:36.217Z,11.36
2017-04-08T01:07:37.501Z,11.29
2017-04-08T01:08:38.720Z,11.32
2017-04-08T01:09:39.974Z,11.31
2017-04-08T01:10:41.210Z,11.32
2017-04-08T01:11:42.448Z,11.41
2017-04-08T01:12:43.690Z,11.35
2017-04-08T01:13:44.946Z,11.29
2017-04-08T01:14:46.198Z,11.28
2017-04-08T01:15:47.459Z,11.21
2017-04-08T01:16:48.889Z,11.28
2017-04-08T01:17:50.072Z,11.2
2017-04-08T01:18:51.370Z,11.25
2017-04-08T01:19:52.599Z,11.31
2017-04-08T01:20:53.840Z,11.21
2017-04-08T01:21:55.080Z,11.14
2017-04-08T01:22:56.337Z,11.24
2017-04-08T01:23:57.595Z,11.25
2017-04-08T01:24:58.855Z,11.21
2017-04-08T01:26:00.111Z,11.19
2017-04-08T01:27:01.342Z,11.27
2017-04-08T01:28:02.610Z,11.29
2017-04-08T01:29:03.833Z,11.17
2017-04-08T01:30:05.140Z,11.27
2017-04-08T01:31:06.352Z,11.21
2017-04-08T01:32:07.587Z,11.17
2017-04-08T01:33:08.829Z,11.14
2017-04-08T01:34:10.068Z,11.16
2017-04-08T01:35:11.329Z,11.19
2017-04-08T01:36:12.678Z,11.09
2017-04-08T01:37:13.913Z,11.13
2017-04-08T01:38:15.195Z,11.13
2017-04-08T01:39:16.441Z,11.09
2017-04-08T01:40:17.702Z,11.03
2017-04-08T01:41:18.999Z,11.01
2017-04-08T01:42:20.238Z,11.06
2017-04-08T01:43:21.473Z,11.02
2017-04-08T01:44:22.828Z,11.01
2017-04-08T01:45:24.071Z,11.06
2017-04-08T01:46:25.322Z,11.03
2017-04-08T01:47:26.617Z,11.03
2017-04-08T01:48:27.900Z,11.02
2017-04-08T01:49:29.143Z,11.02
2017-04-08T01:50:30.400Z,11.02
2017-04-08T01:51:31.623Z,10.96
2017-04-08T01:52:32.872Z,11.01
2017-04-08T01:53:34.110Z,11.06
2017-04-08T01:54:35.350Z,11.01
2017-04-08T01:55:36.581Z,11.02
2017-04-08T01:56:37.853Z,11.02
2017-04-08T01:57:39.169Z,10.95
2017-04-08T01:58:40.410Z,10.95
2017-04-08T01:59:41.645Z,10.96
2017-04-08T02:00:42.940Z,10.95
2017-04-08T02:01:44.163Z,10.96
2017-04-08T02:02:45.404Z,10.92
2017-04-08T02:03:46.644Z,10.99
2017-04-08T02:04:47.880Z,10.91
2017-04-08T02:05:49.159Z,10.94
2017-04-08T02:06:50.409Z,10.96
2017-04-08T02:07:51.629Z,10.95
2017-04-08T02:08:52.994Z,10.89
2017-04-08T02:09:54.226Z,10.95
2017-04-08T02:10:55.506Z,10.86
2017-04-08T02:11:56.747Z,10.92
2017-04-08T02:12:57.984Z,10.86
2017-04-08T02:13:59.290Z,10.86
2017-04-08T02:15:00.531Z,10.89
2017-04-08T02:16:01.775Z,10.88
2017-04-08T02:17:03.020Z,10.86
2017-04-08T02:18:04.254Z,10.84
2017-04-08T02:19:05.510Z,10.91
2017-04-08T02:20:06.753Z,10.86
2017-04-08T02:21:08.009Z,10.84
2017-04-08T02:22:09.256Z,10.8
2017-04-08T02:23:10.518Z,10.84
2017-04-08T02:24:11.724Z,10.77
2017-04-08T02:25:12.963Z,10.81
2017-04-08T02:26:14.204Z,10.81
2017-04-08T02:27:15.463Z,10.76
2017-04-08T02:28:16.787Z,10.8
2017-04-08T02:29:18.089Z,10.83
2017-04-08T02:30:19.316Z,10.88
2017-04-08T02:31:20.609Z,10.81
2017-04-08T02:32:21.788Z,10.88
2017-04-08T02:33:23.049Z,10.86
2017-04-08T02:34:24.313Z,10.74
2017-04-08T02:35:25.585Z,10.74
2017-04-08T02:36:26.857Z,10.77
2017-04-08T02:37:28.081Z,10.74
2017-04-08T02:38:29.322Z,10.73
2017-04-08T02:39:30.591Z,10.7
2017-04-08T02:40:31.815Z,10.7
2017-04-08T02:41:33.068Z,10.7
2017-04-08T02:42:34.320Z,10.7
2017-04-08T02:43:35.558Z,10.71
2017-04-08T02:44:36.825Z,10.74
2017-04-08T02:45:38.076Z,10.62
2017-04-08T02:46:39.296Z,10.68
2017-04-08T02:47:40.544Z,10.66
2017-04-08T02:48:41.863Z,10.74
2017-04-08T02:49:43.127Z,10.66
2017-04-08T02:50:44.382Z,10.53
2017-04-08T02:51:45.620Z,10.59
2017-04-08T02:52:46.891Z,10.55
2017-04-08T02:53:48.109Z,10.47
2017-04-08T02:54:49.373Z,10.6
2017-04-08T02:55:50.623Z,10.53
2017-04-08T02:56:51.892Z,10.55
2017-04-08T02:57:53.158Z,10.6
2017-04-08T02:58:54.413Z,10.56
2017-04-08T02:59:55.655Z,10.56
2017-04-08T03:00:56.999Z,10.53
2017-04-08T03:01:58.252Z,10.58
2017-04-08T03:02:59.519Z,10.58
2017-04-08T03:04:00.742Z,10.43
2017-04-08T03:05:02.005Z,10.44
2017-04-08T03:06:03.246Z,10.52
2017-04-08T03:07:04.600Z,10.43
2017-04-08T03:08:06.020Z,10.44
2017-04-08T03:09:07.264Z,10.42
2017-04-08T03:10:08.489Z,10.46
2017-04-08T03:11:09.727Z,10.43
2017-04-08T03:12:10.984Z,10.43
2017-04-08T03:13:12.225Z,10.46
2017-04-08T03:14:13.578Z,10.44
2017-04-08T03:15:14.814Z,10.43
2017-04-08T03:16:16.054Z,10.44
2017-04-08T03:17:17.299Z,10.44
2017-04-08T03:18:18.572Z,10.51
2017-04-08T03:19:19.793Z,10.43
2017-04-08T03:20:21.046Z,10.4
2017-04-08T03:21:22.301Z,10.4
2017-04-08T03:22:23.538Z,10.43
2017-04-08T03:23:24.779Z,10.4
2017-04-08T03:24:26.017Z,10.43
2017-04-08T03:25:27.258Z,10.37
2017-04-08T03:26:28.492Z,10.4
2017-04-08T03:27:29.846Z,10.39
2017-04-08T03:28:31.092Z,10.43
2017-04-08T03:29:32.351Z,10.4
2017-04-08T03:30:33.650Z,10.4
2017-04-08T03:31:34.966Z,10.37
2017-04-08T03:32:36.160Z,10.4
2017-04-08T03:33:37.402Z,10.42
2017-04-08T03:34:38.647Z,10.44
2017-04-08T03:35:39.869Z,10.37
2017-04-08T03:36:41.119Z,10.34
2017-04-08T03:37:42.384Z,10.28
2017-04-08T03:38:43.649Z,10.34
2017-04-08T03:39:44.872Z,10.3
2017-04-08T03:40:46.103Z,10.33
2017-04-08T03:41:47.344Z,10.32
2017-04-08T03:42:48.582Z,10.28
2017-04-08T03:43:49.818Z,10.26
2017-04-08T03:44:51.089Z,10.26
2017-04-08T03:45:52.348Z,10.33
2017-04-08T03:46:53.615Z,10.24
2017-04-08T03:47:54.854Z,10.28
2017-04-08T03:48:56.093Z,10.26
2017-04-08T03:49:57.413Z,10.33
2017-04-08T03:50:58.671Z,10.25
2017-04-08T03:52:00.031Z,10.26
2017-04-08T03:53:01.286Z,10.21
2017-04-08T03:54:02.520Z,10.19
2017-04-08T03:55:03.769Z,10.22
2017-04-08T03:56:05.074Z,10.21
2017-04-08T03:57:06.311Z,10.17
2017-04-08T03:58:07.587Z,10.18
2017-04-08T03:59:08.837Z,10.15
2017-04-08T04:00:10.078Z,10.21
2017-04-08T04:01:11.383Z,10.19
2017-04-08T04:02:12.605Z,10.17
2017-04-08T04:03:13.862Z,10.06
2017-04-08T04:04:15.110Z,10.15
2017-04-08T04:05:16.354Z,10.09
2017-04-08T04:06:17.591Z,10.09
2017-04-08T04:07:18.824Z,10.17
2017-04-08T04:08:20.077Z,10.12
2017-04-08T04:09:21.397Z,10.12
2017-04-08T04:10:22.646Z,10.09
2017-04-08T04:11:23.882Z,10.09
2017-04-08T04:12:25.147Z,10.06
2017-04-08T04:13:26.379Z,10.1
2017-04-08T04:14:27.598Z,10.04
2017-04-08T04:15:28.869Z,10.14
2017-04-08T04:16:30.093Z,10.1
2017-04-08T04:17:31.344Z,10.14
2017-04-08T04:18:32.595Z,10.04
2017-04-08T04:19:33.833Z,9.96
2017-04-08T04:20:35.180Z,10.04
2017-04-08T04:21:36.428Z,9.99
2017-04-08T04:22:37.896Z,10.07
2017-04-08T04:23:39.145Z,10.07
2017-04-08T04:24:40.487Z,9.97
2017-04-08T04:25:41.718Z,10.07
2017-04-08T04:26:42.962Z,10.01
2017-04-08T04:27:44.194Z,10
2017-04-08T04:28:45.433Z,9.93
2017-04-08T04:29:46.803Z,9.81
2017-04-08T04:30:48.039Z,9.93
2017-04-08T04:31:49.277Z,9.86
2017-04-08T04:32:50.517Z,9.85
2017-04-08T04:33:51.756Z,9.88
2017-04-08T04:34:53.078Z,9.83
2017-04-08T04:35:54.301Z,9.83
2017-04-08T04:36:55.577Z,9.79
2017-04-08T04:37:56.822Z,9.83
2017-04-08T04:38:58.064Z,9.82
2017-04-08T04:39:59.294Z,9.82
2017-04-08T04:41:00.530Z,9.81
2017-04-08T04:42:01.775Z,9.85
2017-04-08T04:43:03.049Z,9.82
2017-04-08T04:44:04.303Z,9.83
2017-04-08T04:45:05.538Z,9.82
2017-04-08T04:46:06.777Z,9.81
2017-04-08T04:47:08.030Z,9.78
2017-04-08T04:48:09.327Z,9.83
2017-04-08T04:49:10.586Z,9.78
2017-04-08T04:50:11.817Z,9.91
2017-04-08T04:51:13.057Z,9.91
2017-04-08T04:52:14.301Z,9.85
2017-04-08T04:53:15.632Z,9.85
2017-04-08T04:54:16.902Z,9.85
2017-04-08T04:55:18.158Z,9.86
2017-04-08T04:56:19.511Z,9.89
2017-04-08T04:57:20.728Z,9.89
2017-04-08T04:58:21.969Z,9.97
2017-04-08T04:59:23.205Z,9.89
2017-04-08T05:00:24.439Z,9.89
2017-04-08T05:01:25.674Z,9.79
2017-04-08T05:02:26.891Z,9.94
2017-04-08T05:03:28.147Z,9.93
2017-04-08T05:04:29.385Z,9.96
2017-04-08T05:05:30.620Z,9.99
2017-04-08T05:06:31.904Z,10
2017-04-08T05:07:33.153Z,10.06
2017-04-08T05:08:34.387Z,10.04
2017-04-08T05:09:35.688Z,10.03
2017-04-08T05:10:36.936Z,9.94
2017-04-08T05:11:38.213Z,10.07
2017-04-08T05:12:39.491Z,10.07
2017-04-08T05:13:40.767Z,9.97
2017-04-08T05:14:42.000Z,10.06
2017-04-08T05:15:43.273Z,10.01
2017-04-08T05:16:44.512Z,10.09
2017-04-08T05:17:45.762Z,10.14
2017-04-08T05:18:47.018Z,10.01
2017-04-08T05:19:48.280Z,9.97
2017-04-08T05:20:49.614Z,10.07
2017-04-08T05:21:50.856Z,10.03
2017-04-08T05:22:52.108Z,10.1
2017-04-08T05:23:53.471Z,10.07
2017-04-08T05:24:54.862Z,10.14
2017-04-08T05:25:56.192Z,10.19
2017-04-08T05:26:57.479Z,10.21
2017-04-08T05:27:58.733Z,10.26
2017-04-08T05:28:59.969Z,10.26
2017-04-08T05:30:01.237Z,10.32
2017-04-08T05:31:02.484Z,10.3
2017-04-08T05:32:03.737Z,10.28
2017-04-08T05:33:04.986Z,10.28
2017-04-08T05:34:06.337Z,10.32
2017-04-08T05:35:07.476Z,10.3
2017-04-08T05:36:08.734Z,10.36
2017-04-08T05:37:10.174Z,10.37
2017-04-08T05:38:11.502Z,10.43
2017-04-08T05:39:12.723Z,10.37
2017-04-08T05:40:13.974Z,10.33
2017-04-08T05:41:15.215Z,10.46
2017-04-08T05:42:16.464Z,10.46
2017-04-08T05:43:17.878Z,10.47
2017-04-08T05:44:19.166Z,10.42
2017-04-08T05:45:20.397Z,10.43
2017-04-08T05:46:21.628Z,10.39
2017-04-08T05:47:22.874Z,10.44
2017-04-08T05:48:24.136Z,10.4
2017-04-08T05:49:25.425Z,10.37
2017-04-08T05:50:26.661Z,10.56
2017-04-08T05:51:27.893Z,10.52
2017-04-08T05:52:29.132Z,10.47
2017-04-08T05:53:30.389Z,10.53
2017-04-08T05:54:31.638Z,10.56
2017-04-08T05:55:32.887Z,10.59
2017-04-08T05:56:34.144Z,10.59
2017-04-08T05:57:35.375Z,10.53
2017-04-08T05:58:36.648Z,10.53
2017-04-08T05:59:37.887Z,10.58
2017-04-08T06:00:39.119Z,10.59
2017-04-08T06:01:40.392Z,10.66
2017-04-08T06:02:41.605Z,10.66
2017-04-08T06:03:42.933Z,10.7
2017-04-08T06:04:44.185Z,10.7
2017-04-08T06:05:45.461Z,10.71
2017-04-08T06:06:46.683Z,10.66
2017-04-08T06:07:47.933Z,10.63
2017-04-08T06:08:49.359Z,10.78
2017-04-08T06:09:50.634Z,10.71
2017-04-08T06:10:51.983Z,10.81
2017-04-08T06:11:53.336Z,10.83
2017-04-08T06:12:54.573Z,10.91
2017-04-08T06:13:56.039Z,10.94
2017-04-08T06:14:57.306Z,10.95
2017-04-08T06:15:58.659Z,11.03
2017-04-08T06:16:59.791Z,11.03
2017-04-08T06:18:01.033Z,11.09
2017-04-08T06:19:02.279Z,11.06
2017-04-08T06:20:03.540Z,11.02
2017-04-08T06:21:04.760Z,11.01
2017-04-08T06:22:06.006Z,11.09
2017-04-08T06:23:07.249Z,11.07
2017-04-08T06:24:08.509Z,11.03
2017-04-08T06:25:09.729Z,11.13
2017-04-08T06:26:11.016Z,11.13
2017-04-08T06:27:12.282Z,11.07
2017-04-08T06:28:13.501Z,11.02
2017-04-08T06:29:14.971Z,11.14
2017-04-08T06:30:16.206Z,11.17
2017-04-08T06:31:17.526Z,11.21
2017-04-08T06:32:18.790Z,11.21
2017-04-08T06:33:20.094Z,11.27
2017-04-08T06:34:21.436Z,11.21
2017-04-08T06:35:22.697Z,11.16
2017-04-08T06:36:23.928Z,11.35
2017-04-08T06:37:25.174Z,11.32
2017-04-08T06:38:26.426Z,11.32
2017-04-08T06:39:27.730Z,11.31
2017-04-08T06:40:28.994Z,11.32
2017-04-08T06:41:30.244Z,11.32
2017-04-08T06:42:31.489Z,11.39
2017-04-08T06:43:32.737Z,11.36
2017-04-08T06:44:33.975Z,11.49
2017-04-08T06:45:35.306Z,11.54
2017-04-08T06:46:36.519Z,11.56
2017-04-08T06:47:37.753Z,11.64
2017-04-08T06:48:38.994Z,11.68
2017-04-08T06:49:40.263Z,11.71
2017-04-08T06:50:41.527Z,11.71
2017-04-08T06:51:42.782Z,11.83
2017-04-08T06:52:44.141Z,11.85
2017-04-08T06:53:45.381Z,11.78
2017-04-08T06:54:46.647Z,11.94
2017-04-08T06:55:47.869Z,11.89
2017-04-08T06:56:49.141Z,11.86
2017-04-08T06:57:50.362Z,11.96
2017-04-08T06:58:51.681Z,11.89
2017-04-08T06:59:52.928Z,11.96
2017-04-08T07:00:54.180Z,11.93
2017-04-08T07:01:55.542Z,12.01
2017-04-08T07:02:56.783Z,12.11
2017-04-08T07:03:58.023Z,12.16
2017-04-08T07:04:59.422Z,12.16
2017-04-08T07:06:00.658Z,12.16
2017-04-08T07:07:01.903Z,12.26
2017-04-08T07:08:03.142Z,12.27
2017-04-08T07:09:04.394Z,12.38
2017-04-08T07:10:05.646Z,12.39
2017-04-08T07:11:07.087Z,12.42
2017-04-08T07:12:08.350Z,12.45
2017-04-08T07:13:09.585Z,12.51
2017-04-08T07:14:10.824Z,12.63
2017-04-08T07:15:12.063Z,12.77
2017-04-08T07:16:13.340Z,12.64
2017-04-08T07:17:14.570Z,12.64
2017-04-08T07:18:15.816Z,12.74
2017-04-08T07:19:17.067Z,12.77
2017-04-08T07:20:18.316Z,12.88
2017-04-08T07:21:19.555Z,12.85
2017-04-08T07:22:20.800Z,12.87
2017-04-08T07:23:22.157Z,12.89
2017-04-08T07:24:23.409Z,12.93
2017-04-08T07:25:24.653Z,12.95
2017-04-08T07:26:25.914Z,12.99
2017-04-08T07:27:27.258Z,13
2017-04-08T07:28:28.509Z,13.03
2017-04-08T07:29:29.758Z,12.99
2017-04-08T07:30:31.029Z,13.02
2017-04-08T07:31:32.249Z,13.06
2017-04-08T07:32:33.499Z,13.03
2017-04-08T07:33:34.731Z,12.97
2017-04-08T07:34:36.069Z,13.07
2017-04-08T07:35:37.298Z,13.17
2017-04-08T07:36:38.588Z,13.24
2017-04-08T07:37:39.860Z,13.38
2017-04-08T07:38:41.073Z,13.4
2017-04-08T07:39:42.316Z,13.49
2017-04-08T07:40:43.569Z,13.52
2017-04-08T07:41:44.832Z,13.62
2017-04-08T07:42:46.083Z,13.63
2017-04-08T07:43:47.373Z,13.71
2017-04-08T07:44:48.610Z,13.76
2017-04-08T07:45:49.850Z,13.83
2017-04-08T07:46:51.116Z,13.81
2017-04-08T07:47:52.366Z,13.8
2017-04-08T07:48:53.655Z,13.79
2017-04-08T07:49:54.899Z,13.87
2017-04-08T07:50:56.133Z,13.89
2017-04-08T07:51:57.402Z,14.01
2017-04-08T07:52:58.643Z,14.1
2017-04-08T07:53:59.941Z,14.02
2017-04-08T07:55:01.198Z,14.12
2017-04-08T07:56:02.487Z,14.27
2017-04-08T07:57:03.700Z,14.24
2017-04-08T07:58:04.920Z,14.32
2017-04-08T07:59:06.188Z,14.46
2017-04-08T08:00:07.524Z,14.47
2017-04-08T08:01:08.780Z,14.35
2017-04-08T08:02:10.133Z,14.34
2017-04-08T08:03:11.373Z,14.34
2017-04-08T08:04:12.640Z,14.53
2017-04-08T08:05:13.861Z,14.57
2017-04-08T08:06:15.271Z,14.67
2017-04-08T08:07:16.421Z,14.8
2017-04-08T08:08:17.688Z,14.78
2017-04-08T08:09:18.921Z,14.91
2017-04-08T08:10:20.180Z,14.87
2017-04-08T08:11:21.432Z,14.87
2017-04-08T08:12:22.794Z,14.93
2017-04-08T08:13:24.154Z,15.13
2017-04-08T08:14:25.434Z,15.2
2017-04-08T08:15:26.696Z,15.28
2017-04-08T08:16:27.932Z,15.41
2017-04-08T08:17:29.222Z,15.52
2017-04-08T08:18:30.467Z,15.78
2017-04-08T08:19:31.708Z,15.86
2017-04-08T08:20:32.947Z,15.86
2017-04-08T08:21:34.190Z,15.72
2017-04-08T08:22:35.445Z,15.63
2017-04-08T08:23:36.688Z,15.68
2017-04-08T08:24:37.917Z,15.79
2017-04-08T08:25:39.180Z,15.97
2017-04-08T08:26:40.426Z,16.09
2017-04-08T08:27:41.670Z,16.3
2017-04-08T08:28:42.923Z,16.27
2017-04-08T08:29:44.192Z,16.38
2017-04-08T08:30:45.405Z,16.5
2017-04-08T08:31:46.658Z,16.48
2017-04-08T08:32:47.889Z,16.62
2017-04-08T08:33:49.136Z,16.67
2017-04-08T08:34:50.397Z,16.63
2017-04-08T08:35:51.639Z,16.6
2017-04-08T08:36:52.885Z,16.62
2017-04-08T08:37:54.136Z,16.56
2017-04-08T08:38:55.443Z,16.58
2017-04-08T08:39:56.696Z,16.56
2017-04-08T08:40:57.957Z,16.68
2017-04-08T08:41:59.210Z,16.56
2017-04-08T08:43:00.561Z,16.58
2017-04-08T08:44:01.829Z,16.41
2017-04-08T08:45:03.120Z,16.49
2017-04-08T08:46:04.368Z,16.35
2017-04-08T08:47:05.615Z,16.38
2017-04-08T08:48:06.862Z,16.58
2017-04-08T08:49:08.120Z,16.45
2017-04-08T08:50:09.459Z,16.52
2017-04-08T08:51:10.695Z,16.63
2017-04-08T08:52:11.943Z,16.68
2017-04-08T08:53:13.186Z,16.71
2017-04-08T08:54:14.460Z,16.71
2017-04-08T08:55:15.725Z,16.8
2017-04-08T08:56:17.093Z,16.8
2017-04-08T08:57:18.378Z,16.92
2017-04-08T08:58:19.630Z,16.88
2017-04-08T08:59:20.889Z,16.92
2017-04-08T09:00:22.125Z,16.93
2017-04-08T09:01:23.377Z,17.03
2017-04-08T09:02:24.617Z,17.04
2017-04-08T09:03:25.875Z,17.1
2017-04-08T09:04:27.186Z,17.2
2017-04-08T09:05:28.522Z,17.28
2017-04-08T09:06:29.796Z,17.28
2017-04-08T09:07:31.028Z,17.43
2017-04-08T09:08:32.279Z,17.33
2017-04-08T09:09:33.528Z,17.23
2017-04-08T09:10:34.841Z,17.26
2017-04-08T09:11:36.131Z,17.35
2017-04-08T09:12:37.453Z,17.44
2017-04-08T09:13:38.712Z,17.51
2017-04-08T09:14:39.990Z,17.51
2017-04-08T09:15:41.253Z,17.66
2017-04-08T09:16:42.515Z,17.57
2017-04-08T09:17:43.746Z,17.7
2017-04-08T09:18:44.996Z,17.87
2017-04-08T09:19:46.254Z,17.74
2017-04-08T09:20:47.528Z,17.87
2017-04-08T09:21:48.816Z,17.74
2017-04-08T09:22:50.200Z,17.82
2017-04-08T09:23:51.426Z,17.89
2017-04-08T09:24:52.676Z,18.1
2017-04-08T09:25:53.982Z,18.18
2017-04-08T09:26:55.248Z,18.21
2017-04-08T09:27:56.501Z,18.1
2017-04-08T09:28:57.820Z,18.1
2017-04-08T09:29:59.097Z,18
2017-04-08T09:31:00.347Z,17.94
2017-04-08T09:32:01.578Z,17.82
2017-04-08T09:33:02.830Z,17.85
2017-04-08T09:34:04.176Z,17.7
2017-04-08T09:35:05.420Z,17.69
2017-04-08T09:36:06.677Z,17.67
2017-04-08T09:37:07.916Z,17.78
2017-04-08T09:38:09.172Z,17.87
2017-04-08T09:39:10.416Z,18.12
2017-04-08T09:40:11.665Z,18.29
2017-04-08T09:41:12.902Z,18.19
2017-04-08T09:42:14.141Z,18.21
2017-04-08T09:43:15.402Z,18.13
2017-04-08T09:44:16.647Z,18.17
2017-04-08T09:45:17.918Z,18.17
2017-04-08T09:46:19.178Z,18.12
2017-04-08T09:47:20.418Z,18.24
2017-04-08T09:48:21.763Z,18.29
2017-04-08T09:49:23.002Z,18.29
2017-04-08T09:50:24.271Z,18.42
2017-04-08T09:51:25.527Z,18.5
2017-04-08T09:52:26.790Z,18.57
2017-04-08T09:53:28.038Z,18.47
2017-04-08T09:54:29.370Z,18.47
2017-04-08T09:55:30.611Z,18.47
2017-04-08T09:56:31.864Z,18.47
2017-04-08T09:57:33.134Z,18.43
2017-04-08T09:58:34.365Z,18.55
2017-04-08T09:59:35.767Z,18.33
2017-04-08T10:00:36.996Z,18.17
2017-04-08T10:01:38.241Z,18.07
2017-04-08T10:02:39.498Z,18
2017-04-08T10:03:40.796Z,17.95
2017-04-08T10:04:42.029Z,18.03
2017-04-08T10:05:43.300Z,18.12
2017-04-08T10:06:44.531Z,18.31
2017-04-08T10:07:45.761Z,18.29
2017-04-08T10:08:47.028Z,18.34
2017-04-08T10:09:48.291Z,18.28
2017-04-08T10:10:49.525Z,18.21
2017-04-08T10:11:50.779Z,17.99
2017-04-08T10:12:52.014Z,17.84
2017-04-08T10:13:53.255Z,17.89
2017-04-08T10:14:54.516Z,17.85
2017-04-08T10:15:55.791Z,18.02
2017-04-08T10:16:57.096Z,18.22
2017-04-08T10:17:58.434Z,18.33
2017-04-08T10:18:59.750Z,18.31
2017-04-08T10:20:00.998Z,18.47
2017-04-08T10:21:02.250Z,18.59
2017-04-08T10:22:03.493Z,18.65
2017-04-08T10:23:04.771Z,18.67
2017-04-08T10:24:06.004Z,18.58
2017-04-08T10:25:07.389Z,18.57
2017-04-08T10:26:08.640Z,18.61
2017-04-08T10:27:09.880Z,18.43
2017-04-08T10:28:11.153Z,18.46
2017-04-08T10:29:12.395Z,18.52
2017-04-08T10:30:13.650Z,18.52
2017-04-08T10:31:14.919Z,18.46
2017-04-08T10:32:16.157Z,18.44
2017-04-08T10:33:17.406Z,18.28
2017-04-08T10:34:18.665Z,18.12
2017-04-08T10:35:19.901Z,18.19
2017-04-08T10:36:21.214Z,18.31
2017-04-08T10:37:22.411Z,18.25
2017-04-08T10:38:23.650Z,18.25
2017-04-08T10:39:24.889Z,18.29
2017-04-08T10:40:26.132Z,18.19
2017-04-08T10:41:27.382Z,18.37
2017-04-08T10:42:28.616Z,18.61
2017-04-08T10:43:29.937Z,18.68
2017-04-08T10:44:31.267Z,18.77
2017-04-08T10:45:32.536Z,18.9
2017-04-08T10:46:33.765Z,19.05
2017-04-08T10:47:35.092Z,19.23
2017-04-08T10:48:36.342Z,19.39
2017-04-08T10:49:37.655Z,19.5
2017-04-08T10:50:38.914Z,19.54
2017-04-08T10:51:40.157Z,19.43
2017-04-08T10:52:41.468Z,19.33
2017-04-08T10:53:42.687Z,19.39
2017-04-08T10:54:44.018Z,19.18
2017-04-08T10:55:45.287Z,19.21
2017-04-08T10:56:46.655Z,19.35
2017-04-08T10:57:47.883Z,19.39
2017-04-08T10:58:49.166Z,19.61
2017-04-08T10:59:50.384Z,19.68
2017-04-08T11:00:51.746Z,19.72
2017-04-08T11:01:52.985Z,19.75
2017-04-08T11:02:54.234Z,19.76
2017-04-08T11:03:55.607Z,19.61
2017-04-08T11:04:56.877Z,19.55
2017-04-08T11:05:58.135Z,19.5
2017-04-08T11:06:59.408Z,19.57
2017-04-08T11:08:00.780Z,19.6
2017-04-08T11:09:01.964Z,19.75
2017-04-08T11:10:03.424Z,19.88
2017-04-08T11:11:04.674Z,20.05
2017-04-08T11:12:05.916Z,19.94
2017-04-08T11:13:07.200Z,20.06
2017-04-08T11:14:08.564Z,20.03
2017-04-08T11:15:09.694Z,20.2
2017-04-08T11:16:10.931Z,20.18
2017-04-08T11:17:12.195Z,20.12
2017-04-08T11:18:13.478Z,20.02
2017-04-08T11:19:14.707Z,20.05
2017-04-08T11:20:15.959Z,20.02
2017-04-08T11:21:17.209Z,20.05
2017-04-08T11:22:18.453Z,19.91
2017-04-08T11:23:19.694Z,19.75
2017-04-08T11:24:21.079Z,19.51
2017-04-08T11:25:22.306Z,19.43
2017-04-08T11:26:23.589Z,19.33
2017-04-08T11:27:24.840Z,19.02
2017-04-08T11:28:26.080Z,18.76
2017-04-08T11:29:27.322Z,18.73
2017-04-08T11:30:28.577Z,18.54
2017-04-08T11:31:29.837Z,18.52
2017-04-08T11:32:31.089Z,18.55
2017-04-08T11:33:32.338Z,18.49
2017-04-08T11:34:33.601Z,18.43
2017-04-08T11:35:34.843Z,18.27
2017-04-08T11:36:36.100Z,18.13
2017-04-08T11:37:37.363Z,18.07
2017-04-08T11:38:38.592Z,17.99
2017-04-08T11:39:39.839Z,17.88
2017-04-08T11:40:41.114Z,17.82
2017-04-08T11:41:42.343Z,17.82
2017-04-08T11:42:43.592Z,17.85
2017-04-08T11:43:44.839Z,18.04
2017-04-08T11:44:46.136Z,18.12
2017-04-08T11:45:47.387Z,18.15
2017-04-08T11:46:48.653Z,18.1
2017-04-08T11:47:49.881Z,18.15
2017-04-08T11:48:51.217Z,18.36
2017-04-08T11:49:52.510Z,18.37
2017-04-08T11:50:53.795Z,18.37
2017-04-08T11:51:55.037Z,18.34
2017-04-08T11:52:56.278Z,18.36
2017-04-08T11:53:57.558Z,18.39
2017-04-08T11:54:58.804Z,18.59
2017-04-08T11:56:00.065Z,18.76
2017-04-08T11:57:01.426Z,18.94
2017-04-08T11:58:02.677Z,19.06
2017-04-08T11:59:03.920Z,19.17
2017-04-08T12:00:05.162Z,18.99
2017-04-08T12:01:06.440Z,18.99
2017-04-08T12:02:07.680Z,19.13
2017-04-08T12:03:09.032Z,19.15
2017-04-08T12:04:10.313Z,19.08
2017-04-08T12:05:11.565Z,19.1
2017-04-08T12:06:12.833Z,19.08
2017-04-08T12:07:14.066Z,19.02
2017-04-08T12:08:15.436Z,19.15
2017-04-08T12:09:16.664Z,19.05
2017-04-08T12:10:17.933Z,18.92
2017-04-08T12:11:19.208Z,18.99
2017-04-08T12:12:20.477Z,19.01
2017-04-08T12:13:21.732Z,19.08
2017-04-08T12:14:23.049Z,18.77
2017-04-08T12:15:24.304Z,18.74
2017-04-08T12:16:25.542Z,18.68
2017-04-08T12:17:26.789Z,18.54
2017-04-08T12:18:28.029Z,18.29
2017-04-08T12:19:29.275Z,18.42
2017-04-08T12:20:30.528Z,18.22
2017-04-08T12:21:31.931Z,18.13
2017-04-08T12:22:33.246Z,18.18
2017-04-08T12:23:34.623Z,18.17
2017-04-08T12:24:35.764Z,18.31
2017-04-08T12:25:37.013Z,18.39
2017-04-08T12:26:38.292Z,18.33
2017-04-08T12:27:39.549Z,18.4
2017-04-08T12:28:40.962Z,18.65
2017-04-08T12:29:42.097Z,18.68
2017-04-08T12:30:43.338Z,18.7
2017-04-08T12:31:44.612Z,18.74
2017-04-08T12:32:45.925Z,19.01
2017-04-08T12:33:47.323Z,19.2
2017-04-08T12:34:48.541Z,19.39
2017-04-08T12:35:49.812Z,19.53
2017-04-08T12:36:51.050Z,19.6
2017-04-08T12:37:52.294Z,19.35
2017-04-08T12:38:53.580Z,19.36
2017-04-08T12:39:54.833Z,19.35
2017-04-08T12:40:56.278Z,19.18
2017-04-08T12:41:57.529Z,19.15
2017-04-08T12:42:58.766Z,19.08
2017-04-08T12:44:00.039Z,19.1
2017-04-08T12:45:01.392Z,19.1
2017-04-08T12:46:02.635Z,19.08
2017-04-08T12:47:03.894Z,19.08
2017-04-08T12:48:05.125Z,18.99
2017-04-08T12:49:06.384Z,19.05
2017-04-08T12:50:07.615Z,19.02
2017-04-08T12:51:08.870Z,18.84
2017-04-08T12:52:10.149Z,18.95
2017-04-08T12:53:11.422Z,18.92
2017-04-08T12:54:12.677Z,19.01
2017-04-08T12:55:13.926Z,19.06
2017-04-08T12:56:15.173Z,19.06
2017-04-08T12:57:16.446Z,19.01
2017-04-08T12:58:17.704Z,19.13
2017-04-08T12:59:18.956Z,19.08
2017-04-08T13:00:20.406Z,19.1
2017-04-08T13:01:21.654Z,19.14
2017-04-08T13:02:22.911Z,19.21
2017-04-08T13:03:24.176Z,19.24
2017-04-08T13:04:25.437Z,19.15
2017-04-08T13:05:26.702Z,19.06
2017-04-08T13:06:27.994Z,18.95
2017-04-08T13:07:29.218Z,18.98
2017-04-08T13:08:30.449Z,18.84
2017-04-08T13:09:31.693Z,18.77
2017-04-08T13:10:32.943Z,18.87
2017-04-08T13:11:34.212Z,18.76
2017-04-08T13:12:35.443Z,18.73